createdAt,value
2023-07-23T00:00:32.882Z,995.4
2023-07-23T00:01:36.945Z,995.4
2023-07-23T00:02:38.192Z,995.4
2023-07-23T00:03:39.471Z,995.4
2023-07-23T00:04:43.768Z,995.4
2023-07-23T00:05:44.941Z,995.4
2023-07-23T00:06:46.114Z,995.4
2023-07-23T00:07:50.264Z,995.4
2023-07-23T00:08:51.566Z,995.4
2023-07-23T00:09:52.796Z,995.4
2023-07-23T00:10:56.779Z,995.4
2023-07-23T00:12:03.547Z,995.4
2023-07-23T00:13:04.787Z,995.4
2023-07-23T00:14:05.985Z,995.4
2023-07-23T00:15:07.144Z,995.4
2023-07-23T00:16:08.629Z,995.4
2023-07-23T00:17:09.877Z,995.4
2023-07-23T00:18:11.039Z,995.5
2023-07-23T00:19:12.204Z,995.5
2023-07-23T00:20:13.419Z,995.5
2023-07-23T00:21:14.557Z,995.5
2023-07-23T00:22:15.725Z,995.5
2023-07-23T00:23:16.902Z,995.5
2023-07-23T00:24:20.904Z,995.5
2023-07-23T00:25:22.369Z,995.5
2023-07-23T00:26:35.430Z,995.5
2023-07-23T00:27:38.730Z,995.5
2023-07-23T00:28:51.634Z,995.5
2023-07-23T00:29:52.783Z,995.5
2023-07-23T00:30:53.938Z,995.6
2023-07-23T00:31:55.101Z,995.5
2023-07-23T00:33:01.147Z,995.5
2023-07-23T00:34:11.160Z,995.5
2023-07-23T00:35:12.353Z,995.5
2023-07-23T00:36:13.511Z,995.5
2023-07-23T00:37:14.685Z,995.5
2023-07-23T00:38:15.902Z,995.5
2023-07-23T00:39:20.159Z,995.4
2023-07-23T00:40:21.398Z,995.4
2023-07-23T00:41:22.545Z,995.5
2023-07-23T00:42:23.876Z,995.5
2023-07-23T00:43:28.057Z,995.5
2023-07-23T00:46:00.298Z,995.5
2023-07-23T00:47:09.963Z,995.5
2023-07-23T00:48:15.949Z,995.5
2023-07-23T00:49:17.114Z,995.5
2023-07-23T00:50:21.175Z,995.5
2023-07-23T00:51:22.334Z,995.4
2023-07-23T00:52:26.443Z,995.4
2023-07-23T00:53:27.649Z,995.4
2023-07-23T00:54:28.810Z,995.4
2023-07-23T00:55:51.150Z,995.4
2023-07-23T00:57:16.141Z,995.4
2023-07-23T00:58:17.280Z,995.4
2023-07-23T00:59:21.307Z,995.3
2023-07-23T01:00:22.788Z,995.4
2023-07-23T01:01:24.139Z,995.3
2023-07-23T01:02:25.474Z,995.3
2023-07-23T01:03:26.724Z,995.3
2023-07-23T01:04:27.917Z,995.3
2023-07-23T01:05:29.101Z,995.3
2023-07-23T01:06:30.261Z,995.3
2023-07-23T01:07:31.470Z,995.3
2023-07-23T01:08:32.719Z,995.4
2023-07-23T01:09:33.922Z,995.3
2023-07-23T01:10:35.114Z,995.3
2023-07-23T01:11:36.305Z,995.3
2023-07-23T01:12:37.448Z,995.4
2023-07-23T01:13:38.637Z,995.4
2023-07-23T01:14:39.812Z,995.4
2023-07-23T01:15:40.999Z,995.4
2023-07-23T01:16:42.202Z,995.4
2023-07-23T01:17:43.402Z,995.4
2023-07-23T01:18:50.407Z,995.5
2023-07-23T01:20:13.640Z,995.5
2023-07-23T01:21:14.781Z,995.4
2023-07-23T01:22:22.853Z,995.4
2023-07-23T01:23:32.767Z,995.4
2023-07-23T01:24:33.983Z,995.3
2023-07-23T01:25:41.916Z,995.3
2023-07-23T01:26:48.612Z,995.3
2023-07-23T01:27:52.808Z,995.3
2023-07-23T01:29:03.177Z,995.3
2023-07-23T01:30:18.908Z,995.3
2023-07-23T01:31:31.525Z,995.3
2023-07-23T01:32:38.450Z,995.3
2023-07-23T01:33:52.852Z,995.3
2023-07-23T01:34:58.940Z,995.3
2023-07-23T01:39:03.281Z,995.3
2023-07-23T01:40:14.635Z,995.3
2023-07-23T01:41:24.913Z,995.3
2023-07-23T01:42:26.304Z,995.3
2023-07-23T01:45:50.525Z,995.3
2023-07-23T01:47:09.689Z,995.3
2023-07-23T01:48:16.718Z,995.3
2023-07-23T01:49:29.320Z,995.4
2023-07-23T02:30:24.447Z,995.1
2023-07-23T02:32:44.043Z,995
2023-07-23T02:33:45.209Z,995
2023-07-23T02:35:09.368Z,995
2023-07-23T02:36:10.513Z,995
2023-07-23T02:37:11.704Z,995
2023-07-23T02:38:12.867Z,995
2023-07-23T02:39:14.035Z,995
2023-07-23T02:40:23.992Z,995.1
2023-07-23T02:41:37.447Z,995.1
2023-07-23T02:42:44.353Z,995.1
2023-07-23T02:43:45.522Z,995.1
2023-07-23T02:44:49.562Z,995.1
2023-07-23T02:46:19.477Z,995.1
2023-07-23T02:53:16.603Z,995.2
2023-07-23T02:54:17.770Z,995.1
2023-07-23T02:55:18.933Z,995.2
2023-07-23T02:56:20.120Z,995.2
2023-07-23T02:57:21.335Z,995.2
2023-07-23T02:58:22.489Z,995.2
2023-07-23T02:59:23.669Z,995.2
2023-07-23T03:00:24.840Z,995.2
2023-07-23T03:01:26.307Z,995.2
2023-07-23T03:02:28.270Z,995.1
2023-07-23T03:03:32.422Z,995
2023-07-23T03:04:33.710Z,995
2023-07-23T03:05:34.895Z,995
2023-07-23T03:06:36.114Z,994.9
2023-07-23T03:07:37.296Z,994.9
2023-07-23T03:08:47.175Z,994.9
2023-07-23T03:09:48.358Z,994.9
2023-07-23T03:10:49.501Z,995
2023-07-23T03:11:56.413Z,995
2023-07-23T03:12:57.580Z,995
2023-07-23T03:13:58.825Z,995
2023-07-23T03:15:05.924Z,995
2023-07-23T03:16:09.760Z,994.9
2023-07-23T03:17:13.453Z,994.9
2023-07-23T03:18:14.688Z,994.9
2023-07-23T03:19:26.096Z,994.8
2023-07-23T03:20:27.257Z,994.8
2023-07-23T03:21:28.719Z,994.8
2023-07-23T03:22:30.411Z,994.9
2023-07-23T03:23:33.715Z,994.9
2023-07-23T03:24:37.133Z,994.9
2023-07-23T03:25:38.315Z,995
2023-07-23T03:26:42.086Z,995
2023-07-23T03:27:45.970Z,995
2023-07-23T03:28:47.126Z,994.9
2023-07-23T03:29:48.299Z,994.9
2023-07-23T03:30:49.495Z,994.9
2023-07-23T03:31:50.743Z,994.9
2023-07-23T03:32:54.798Z,994.9
2023-07-23T03:33:56.007Z,994.9
2023-07-23T03:34:57.144Z,994.8
2023-07-23T03:35:58.326Z,994.8
2023-07-23T03:36:59.473Z,994.8
2023-07-23T03:38:00.659Z,994.8
2023-07-23T03:39:01.806Z,994.8
2023-07-23T03:40:02.987Z,994.8
2023-07-23T03:41:04.216Z,994.8
2023-07-23T03:42:06.205Z,994.8
2023-07-23T03:43:07.861Z,994.8
2023-07-23T03:44:09.025Z,994.8
2023-07-23T03:45:13.274Z,994.8
2023-07-23T03:46:14.507Z,994.8
2023-07-23T03:47:15.672Z,994.8
2023-07-23T03:48:19.512Z,994.7
2023-07-23T03:49:20.654Z,994.7
2023-07-23T03:50:21.832Z,994.6
2023-07-23T03:51:22.995Z,994.6
2023-07-23T03:52:24.177Z,994.6
2023-07-23T03:53:28.048Z,994.6
2023-07-23T03:54:29.219Z,994.7
2023-07-23T03:55:30.375Z,994.7
2023-07-23T03:56:31.537Z,994.7
2023-07-23T03:57:38.735Z,994.8
2023-07-23T03:58:39.914Z,994.7
2023-07-23T03:59:41.105Z,994.7
2023-07-23T04:00:42.253Z,994.7
2023-07-23T04:01:43.516Z,994.7
2023-07-23T04:02:47.741Z,994.6
2023-07-23T04:03:49.006Z,994.6
2023-07-23T04:04:52.905Z,994.5
2023-07-23T04:05:54.082Z,994.5
2023-07-23T04:06:57.751Z,994.5
2023-07-23T04:07:58.917Z,994.5
2023-07-23T04:09:00.079Z,994.4
2023-07-23T04:10:01.355Z,994.5
2023-07-23T04:11:02.519Z,994.4
2023-07-23T04:12:12.543Z,994.4
2023-07-23T04:13:16.368Z,994.4
2023-07-23T04:14:19.920Z,994.4
2023-07-23T04:15:21.104Z,994.4
2023-07-23T04:16:22.360Z,994.5
2023-07-23T04:17:23.535Z,994.5
2023-07-23T04:18:24.758Z,994.5
2023-07-23T04:19:25.967Z,994.5
2023-07-23T04:20:27.128Z,994.5
2023-07-23T04:21:28.921Z,994.5
2023-07-23T04:22:30.728Z,994.4
2023-07-23T04:23:31.890Z,994.4
2023-07-23T04:24:33.128Z,994.4
2023-07-23T04:25:34.286Z,994.4
2023-07-23T04:26:35.495Z,994.4
2023-07-23T04:27:36.651Z,994.4
2023-07-23T04:28:37.816Z,994.4
2023-07-23T04:29:38.982Z,994.4
2023-07-23T04:30:40.153Z,994.4
2023-07-23T04:31:44.144Z,994.4
2023-07-23T04:32:45.400Z,994.4
2023-07-23T04:33:49.182Z,994.4
2023-07-23T04:34:50.417Z,994.4
2023-07-23T04:35:51.588Z,994.4
2023-07-23T04:36:52.761Z,994.5
2023-07-23T04:37:59.106Z,994.5
2023-07-23T04:39:00.243Z,994.5
2023-07-23T04:40:01.587Z,994.4
2023-07-23T04:41:05.703Z,994.4
2023-07-23T04:42:09.890Z,994.5
2023-07-23T04:43:11.112Z,994.5
2023-07-23T04:44:15.250Z,994.5
2023-07-23T04:45:21.256Z,994.5
2023-07-23T04:46:22.426Z,994.5
2023-07-23T04:47:23.650Z,994.4
2023-07-23T04:48:24.821Z,994.4
2023-07-23T04:49:25.969Z,994.4
2023-07-23T04:50:27.185Z,994.4
2023-07-23T04:51:31.316Z,994.4
2023-07-23T04:52:32.562Z,994.4
2023-07-23T04:53:33.725Z,994.4
2023-07-23T04:54:36.947Z,994.4
2023-07-23T04:55:38.077Z,994.4
2023-07-23T04:56:39.307Z,994.3
2023-07-23T04:57:40.543Z,994.3
2023-07-23T04:58:41.915Z,994.3
2023-07-23T04:59:43.111Z,994.3
2023-07-23T05:00:44.268Z,994.3
2023-07-23T05:01:50.821Z,994.2
2023-07-23T05:02:52.014Z,994.2
2023-07-23T05:03:53.233Z,994.2
2023-07-23T05:04:54.429Z,994.2
2023-07-23T05:05:55.614Z,994.2
2023-07-23T05:06:56.958Z,994.2
2023-07-23T05:08:02.075Z,994.2
2023-07-23T05:09:03.373Z,994.2
2023-07-23T05:10:04.599Z,994.2
2023-07-23T05:11:05.756Z,994.2
2023-07-23T05:12:06.935Z,994.2
2023-07-23T05:13:08.156Z,994.2
2023-07-23T05:14:12.271Z,994.2
2023-07-23T05:15:13.427Z,994.2
2023-07-23T05:16:14.709Z,994.2
2023-07-23T05:17:21.092Z,994.2
2023-07-23T05:18:22.285Z,994.2
2023-07-23T05:19:23.452Z,994.2
2023-07-23T05:20:24.629Z,994.1
2023-07-23T05:21:28.728Z,994.2
2023-07-23T05:22:34.473Z,994.2
2023-07-23T05:23:35.642Z,994.1
2023-07-23T05:24:36.877Z,994.1
2023-07-23T05:25:41.056Z,994.1
2023-07-23T05:26:42.244Z,994.1
2023-07-23T05:27:47.905Z,994.1
2023-07-23T05:28:51.339Z,994.1
2023-07-23T05:29:52.520Z,994.1
2023-07-23T05:30:53.750Z,994.1
2023-07-23T05:31:54.892Z,994
2023-07-23T05:32:56.085Z,994
2023-07-23T05:33:57.310Z,994
2023-07-23T05:34:58.484Z,994
2023-07-23T05:35:59.638Z,994
2023-07-23T05:37:00.834Z,994
2023-07-23T05:38:04.701Z,993.9
2023-07-23T05:39:05.857Z,993.9
2023-07-23T05:40:07.084Z,993.9
2023-07-23T05:41:10.667Z,993.9
2023-07-23T05:42:11.817Z,993.9
2023-07-23T05:43:12.989Z,993.9
2023-07-23T05:44:16.867Z,993.9
2023-07-23T05:45:18.004Z,993.9
2023-07-23T05:46:19.240Z,993.9
2023-07-23T05:47:20.438Z,993.9
2023-07-23T05:48:21.581Z,993.9
2023-07-23T05:49:22.932Z,993.9
2023-07-23T05:50:24.162Z,993.9
2023-07-23T05:51:25.327Z,993.8
2023-07-23T05:52:29.451Z,993.8
2023-07-23T05:53:30.595Z,993.8
2023-07-23T05:54:31.758Z,993.8
2023-07-23T05:55:32.975Z,993.8
2023-07-23T05:56:34.138Z,993.7
2023-07-23T05:57:35.360Z,993.7
2023-07-23T05:58:36.575Z,993.7
2023-07-23T05:59:37.946Z,993.7
2023-07-23T06:00:39.210Z,993.7
2023-07-23T06:01:40.357Z,993.7
2023-07-23T06:02:41.680Z,993.7
2023-07-23T06:03:54.771Z,993.7
2023-07-23T06:05:03.205Z,993.7
2023-07-23T06:06:09.881Z,993.7
2023-07-23T06:07:14.048Z,993.7
2023-07-23T06:08:15.237Z,993.7
2023-07-23T06:09:16.541Z,993.7
2023-07-23T06:10:17.676Z,993.7
2023-07-23T06:11:18.878Z,993.7
2023-07-23T06:12:23.039Z,993.7
2023-07-23T06:13:27.092Z,993.6
2023-07-23T06:14:28.425Z,993.6
2023-07-23T06:15:29.758Z,993.6
2023-07-23T06:16:30.926Z,993.6
2023-07-23T06:17:32.147Z,993.6
2023-07-23T06:18:33.562Z,993.6
2023-07-23T06:19:34.725Z,993.6
2023-07-23T06:20:35.914Z,993.6
2023-07-23T06:21:37.076Z,993.5
2023-07-23T06:22:40.320Z,993.5
2023-07-23T06:23:41.489Z,993.5
2023-07-23T06:24:42.799Z,993.5
2023-07-23T06:25:46.393Z,993.5
2023-07-23T06:26:50.494Z,993.5
2023-07-23T06:27:51.677Z,993.5
2023-07-23T06:28:52.856Z,993.5
2023-07-23T06:29:54.010Z,993.5
2023-07-23T06:30:55.233Z,993.5
2023-07-23T06:32:02.340Z,993.5
2023-07-23T06:33:03.551Z,993.5
2023-07-23T06:34:04.850Z,993.4
2023-07-23T06:35:06.482Z,993.4
2023-07-23T06:36:07.768Z,993.4
2023-07-23T06:37:08.923Z,993.4
2023-07-23T06:38:10.094Z,993.4
2023-07-23T06:39:11.291Z,993.4
2023-07-23T06:40:12.482Z,993.4
2023-07-23T06:41:13.641Z,993.4
2023-07-23T06:42:14.802Z,993.4
2023-07-23T06:43:15.997Z,993.4
2023-07-23T06:44:19.790Z,993.4
2023-07-23T06:45:23.785Z,993.4
2023-07-23T06:46:24.999Z,993.3
2023-07-23T06:47:26.206Z,993.3
2023-07-23T06:48:27.403Z,993.3
2023-07-23T06:49:28.572Z,993.3
2023-07-23T06:50:29.760Z,993.2
2023-07-23T06:51:31.495Z,993.2
2023-07-23T06:52:32.808Z,993.2
2023-07-23T06:53:33.944Z,993.2
2023-07-23T06:54:35.139Z,993.2
2023-07-23T06:55:36.330Z,993.1
2023-07-23T06:56:37.555Z,993.1
2023-07-23T06:57:38.718Z,993.1
2023-07-23T06:58:39.884Z,993.1
2023-07-23T06:59:43.224Z,993.1
2023-07-23T07:00:44.397Z,993.1
2023-07-23T07:01:45.758Z,993.2
2023-07-23T07:02:49.204Z,993.1
2023-07-23T07:03:50.487Z,993.1
2023-07-23T07:04:51.672Z,993.1
2023-07-23T07:06:06.768Z,993.1
2023-07-23T07:07:07.932Z,993.1
2023-07-23T07:08:09.103Z,993.1
2023-07-23T07:09:12.974Z,993.1
2023-07-23T07:10:14.148Z,993.1
2023-07-23T07:11:17.559Z,993.1
2023-07-23T07:12:18.756Z,993
2023-07-23T07:13:20.026Z,993
2023-07-23T07:14:21.314Z,993
2023-07-23T07:15:22.601Z,993
2023-07-23T07:16:29.507Z,993
2023-07-23T07:17:30.834Z,993
2023-07-23T07:18:32.045Z,992.9
2023-07-23T07:19:33.207Z,993
2023-07-23T07:20:34.377Z,993
2023-07-23T07:21:35.555Z,992.9
2023-07-23T07:22:36.959Z,992.9
2023-07-23T07:23:38.129Z,992.9
2023-07-23T07:24:39.323Z,992.9
2023-07-23T07:25:40.566Z,992.9
2023-07-23T07:26:41.740Z,992.9
2023-07-23T07:27:42.924Z,992.9
2023-07-23T07:28:44.084Z,992.9
2023-07-23T07:29:48.166Z,992.9
2023-07-23T07:30:49.312Z,992.8
2023-07-23T07:31:55.393Z,992.9
2023-07-23T07:32:59.497Z,992.8
2023-07-23T07:34:00.689Z,992.8
2023-07-23T07:35:01.858Z,992.8
2023-07-23T07:36:03.038Z,992.8
2023-07-23T07:37:04.187Z,992.7
2023-07-23T07:38:08.032Z,992.7
2023-07-23T07:39:09.208Z,992.8
2023-07-23T07:40:10.390Z,992.8
2023-07-23T07:41:11.597Z,992.7
2023-07-23T07:42:12.886Z,992.7
2023-07-23T07:43:16.727Z,992.7
2023-07-23T07:44:28.954Z,992.7
2023-07-23T07:45:34.810Z,992.7
2023-07-23T07:46:36.054Z,992.7
2023-07-23T07:47:37.286Z,992.7
2023-07-23T07:48:38.444Z,992.7
2023-07-23T07:49:39.817Z,992.6
2023-07-23T07:50:43.725Z,992.6
2023-07-23T07:51:44.894Z,992.6
2023-07-23T07:52:50.690Z,992.6
2023-07-23T07:53:51.870Z,992.6
2023-07-23T07:54:53.011Z,992.6
2023-07-23T07:55:54.176Z,992.6
2023-07-23T07:56:55.595Z,992.6
2023-07-23T07:58:02.353Z,992.6
2023-07-23T07:59:06.259Z,992.6
2023-07-23T08:00:07.540Z,992.5
2023-07-23T08:01:13.534Z,992.5
2023-07-23T08:02:14.709Z,992.5
2023-07-23T08:03:16.058Z,992.5
2023-07-23T08:04:23.208Z,992.5
2023-07-23T08:05:24.856Z,992.5
2023-07-23T08:06:29.016Z,992.5
2023-07-23T08:07:33.130Z,992.5
2023-07-23T08:08:34.293Z,992.5
2023-07-23T08:09:37.751Z,992.4
2023-07-23T08:10:38.941Z,992.4
2023-07-23T08:11:40.084Z,992.4
2023-07-23T08:12:41.555Z,992.4
2023-07-23T08:13:44.875Z,992.4
2023-07-23T08:14:46.041Z,992.4
2023-07-23T08:15:47.289Z,992.4
2023-07-23T08:16:54.556Z,992.4
2023-07-23T08:17:55.702Z,992.4
2023-07-23T08:18:56.914Z,992.4
2023-07-23T08:19:58.113Z,992.4
2023-07-23T08:21:02.228Z,992.4
2023-07-23T08:22:03.401Z,992.3
2023-07-23T08:23:07.397Z,992.3
2023-07-23T08:24:08.598Z,992.3
2023-07-23T08:25:09.796Z,992.3
2023-07-23T08:26:10.934Z,992.3
2023-07-23T08:27:15.138Z,992.3
2023-07-23T08:28:16.304Z,992.3
2023-07-23T08:29:17.445Z,992.2
2023-07-23T08:30:18.610Z,992.3
2023-07-23T08:31:19.820Z,992.2
2023-07-23T08:32:21.541Z,992.2
2023-07-23T08:33:22.942Z,992.2
2023-07-23T08:34:24.456Z,992.2
2023-07-23T08:35:25.624Z,992.2
2023-07-23T08:36:26.799Z,992.2
2023-07-23T08:37:30.900Z,992.2
2023-07-23T08:38:32.104Z,992.2
2023-07-23T08:39:33.287Z,992.2
2023-07-23T08:40:34.431Z,992.2
2023-07-23T08:41:35.600Z,992.2
2023-07-23T08:42:36.786Z,992.2
2023-07-23T08:43:37.972Z,992.2
2023-07-23T08:44:39.151Z,992.2
2023-07-23T08:45:40.351Z,992.2
2023-07-23T08:46:41.492Z,992.2
2023-07-23T08:47:42.747Z,992.1
2023-07-23T08:48:44.006Z,992.1
2023-07-23T08:49:47.813Z,992.1
2023-07-23T08:50:48.954Z,992.1
2023-07-23T08:51:50.129Z,992.1
2023-07-23T08:52:51.372Z,992.1
2023-07-23T08:53:52.727Z,992
2023-07-23T08:54:58.790Z,992.1
2023-07-23T08:55:59.961Z,992
2023-07-23T08:57:04.074Z,992
2023-07-23T08:58:05.234Z,992
2023-07-23T08:59:07.248Z,992
2023-07-23T09:00:13.911Z,992
2023-07-23T09:01:15.117Z,992
2023-07-23T09:02:16.392Z,992
2023-07-23T09:03:33.353Z,991.9
2023-07-23T09:05:54.065Z,991.9
2023-07-23T09:07:03.342Z,991.9
2023-07-23T09:08:20.718Z,991.9
2023-07-23T09:09:33.950Z,991.9
2023-07-23T09:10:35.140Z,991.9
2023-07-23T09:12:47.337Z,991.8
2023-07-23T09:13:54.346Z,991.8
2023-07-23T09:14:55.525Z,991.8
2023-07-23T10:08:12.102Z,991.5
2023-07-23T10:09:58.473Z,991.5
2023-07-23T10:10:59.635Z,991.5
2023-07-23T10:12:00.827Z,991.6
2023-07-23T10:13:05.070Z,991.5
2023-07-23T10:14:06.247Z,991.6
2023-07-23T10:15:07.487Z,991.6
2023-07-23T10:16:08.660Z,991.5
2023-07-23T10:17:09.833Z,991.6
2023-07-23T10:18:11.046Z,991.5
2023-07-23T10:19:15.145Z,991.5
2023-07-23T10:20:16.396Z,991.5
2023-07-23T10:21:17.655Z,991.5
2023-07-23T10:22:18.805Z,991.5
2023-07-23T10:23:25.375Z,991.5
2023-07-23T10:24:26.557Z,991.5
2023-07-23T10:25:35.542Z,991.5
2023-07-23T10:26:45.877Z,991.5
2023-07-23T11:06:24.568Z,991.5
2023-07-23T11:07:30.906Z,991.1
2023-07-23T11:08:32.178Z,991.1
2023-07-23T11:09:40.732Z,991.1
2023-07-23T11:22:12.177Z,991.1
2023-07-23T11:23:16.251Z,991.4
2023-07-23T11:24:17.757Z,991.3
2023-07-23T11:25:24.204Z,991.4
2023-07-23T11:26:35.919Z,991.3
2023-07-23T11:27:42.902Z,991.4
2023-07-23T11:28:47.012Z,991.4
2023-07-23T11:29:53.845Z,991.4
2023-07-23T11:30:55.115Z,991.4
2023-07-23T11:31:58.933Z,991.3
2023-07-23T11:33:00.205Z,991.4
2023-07-23T11:34:03.579Z,991.5
2023-07-23T11:35:07.635Z,991.4
2023-07-23T11:36:08.875Z,991.5
2023-07-23T11:37:12.780Z,991.5
2023-07-23T11:38:16.125Z,991.4
2023-07-23T11:39:17.400Z,991.4
2023-07-23T11:40:18.541Z,991.4
2023-07-23T11:41:34.077Z,991.5
2023-07-23T11:42:40.795Z,991.5
2023-07-23T11:43:41.981Z,991.6
2023-07-23T11:44:43.151Z,991.6
2023-07-23T11:45:44.351Z,991.6
2023-07-23T11:46:45.522Z,991.7
2023-07-23T11:47:53.300Z,991.7
2023-07-23T11:48:54.703Z,991.6
2023-07-23T11:49:55.870Z,991.7
2023-07-23T11:50:57.051Z,991.7
2023-07-23T11:51:58.197Z,991.7
2023-07-23T11:52:59.390Z,991.8
2023-07-23T11:54:03.325Z,991.7
2023-07-23T11:55:04.463Z,991.7
2023-07-23T11:56:05.628Z,991.6
2023-07-23T11:57:06.808Z,991.6
2023-07-23T11:58:08.028Z,991.6
2023-07-23T11:59:09.204Z,991.6
2023-07-23T12:00:10.409Z,991.6
2023-07-23T12:01:11.789Z,991.5
2023-07-23T12:02:13.080Z,991.5
2023-07-23T12:03:14.605Z,991.6
2023-07-23T12:04:38.464Z,991.5
2023-07-23T12:05:39.614Z,991.5
2023-07-23T12:07:52.485Z,991.6
2023-07-23T12:11:27.665Z,991.6
2023-07-23T12:13:14.801Z,991.6
2023-07-23T12:14:39.889Z,991.5
2023-07-23T12:15:49.694Z,991.5
2023-07-23T12:16:56.950Z,991.5
2023-07-23T12:18:04.121Z,991.5
2023-07-23T12:19:05.287Z,991.5
2023-07-23T12:20:06.456Z,991.6
2023-07-23T12:21:12.450Z,991.6
2023-07-23T12:22:18.466Z,991.6
2023-07-23T12:23:24.464Z,991.6
2023-07-23T12:24:45.347Z,991.6
2023-07-23T13:20:15.248Z,991.9
2023-07-23T14:00:06.465Z,991.8
2023-07-23T14:03:04.225Z,991.8
2023-07-23T14:04:05.803Z,991.8
2023-07-23T14:05:14.689Z,991.8
2023-07-23T14:06:50.177Z,991.8
2023-07-23T14:08:14.338Z,991.7
2023-07-23T14:10:00.546Z,991.7
2023-07-23T14:11:13.747Z,991.8
2023-07-23T14:13:10.752Z,991.8
2023-07-23T14:24:49.745Z,992
2023-07-23T14:26:38.994Z,991.9
2023-07-23T14:27:42.306Z,991.9
2023-07-23T14:31:38.382Z,991.9
2023-07-23T14:35:47.707Z,992.1
2023-07-23T14:37:15.872Z,992
2023-07-23T14:59:10.363Z,992.1
2023-07-23T15:00:11.594Z,992.1
2023-07-23T15:01:31.450Z,992
2023-07-23T15:02:38.569Z,991.9
2023-07-23T15:03:42.879Z,992
2023-07-23T15:04:47.117Z,992
2023-07-23T15:05:55.800Z,991.9
2023-07-23T15:07:01.669Z,991.9
2023-07-23T15:09:23.000Z,991.8
2023-07-23T15:10:30.362Z,991.9
2023-07-23T15:11:32.360Z,991.9
2023-07-23T15:12:38.477Z,991.8
2023-07-23T15:13:44.501Z,991.8
2023-07-23T15:14:53.929Z,991.8
2023-07-23T15:16:03.274Z,991.7
2023-07-23T15:17:22.132Z,991.7
2023-07-23T15:18:26.247Z,991.8
2023-07-23T15:19:29.959Z,991.8
2023-07-23T15:20:31.143Z,991.8
2023-07-23T15:25:19.842Z,991.8
2023-07-23T15:31:07.494Z,991.7
2023-07-23T16:01:46.414Z,991.8
2023-07-23T16:03:45.072Z,991.8
2023-07-23T16:04:46.317Z,991.8
2023-07-23T16:05:47.510Z,991.8
2023-07-23T16:06:53.456Z,991.8
2023-07-23T16:07:57.576Z,991.8
2023-07-23T16:09:01.837Z,991.8
2023-07-23T16:10:16.478Z,991.8
2023-07-23T16:12:38.108Z,991.8
2023-07-23T16:13:46.325Z,991.8
2023-07-23T16:15:00.543Z,991.8
2023-07-23T16:16:45.043Z,991.8
2023-07-23T16:17:54.025Z,991.9
2023-07-23T16:21:02.393Z,991.8
2023-07-23T16:22:31.947Z,991.8
2023-07-23T16:24:20.883Z,991.7
2023-07-23T16:26:08.953Z,991.7
2023-07-23T16:27:23.314Z,991.7
2023-07-23T16:28:31.619Z,991.7
2023-07-23T16:29:37.597Z,991.7
2023-07-23T16:31:02.493Z,991.7
2023-07-23T16:32:15.051Z,991.7
2023-07-23T16:33:32.375Z,991.7
2023-07-23T17:39:46.914Z,991.6
2023-07-23T17:40:52.915Z,991.6
2023-07-23T17:42:13.295Z,991.6
2023-07-23T17:44:41.062Z,991.7
2023-07-23T17:45:47.529Z,991.7
2023-07-23T17:46:55.360Z,991.7
2023-07-23T17:48:05.215Z,991.7
2023-07-23T17:49:42.958Z,991.7
2023-07-23T17:50:51.486Z,991.7
2023-07-23T17:53:06.827Z,991.6
2023-07-23T17:55:21.080Z,991.6
2023-07-23T17:56:31.903Z,991.6
2023-07-23T17:57:39.235Z,991.6
2023-07-23T17:59:53.690Z,991.6
2023-07-23T18:01:30.956Z,991.6
2023-07-23T18:02:38.769Z,991.6
2023-07-23T18:03:46.302Z,991.6
2023-07-23T18:04:54.722Z,991.5
2023-07-23T18:09:57.524Z,991.5
2023-07-23T18:10:58.715Z,991.6
2023-07-23T18:12:02.299Z,991.6
2023-07-23T18:13:06.240Z,991.6
2023-07-23T18:15:30.835Z,991.6
2023-07-23T18:16:39.680Z,991.5
2023-07-23T18:18:01.061Z,991.5
2023-07-23T18:19:04.878Z,991.5
2023-07-23T18:20:06.218Z,991.5
2023-07-23T18:21:19.358Z,991.5
2023-07-23T18:42:34.447Z,991.5
2023-07-23T18:43:35.700Z,991.5
2023-07-23T18:44:39.875Z,991.5
2023-07-23T18:45:41.044Z,991.4
2023-07-23T18:46:42.309Z,991.5
2023-07-23T18:47:45.986Z,991.5
2023-07-23T18:48:47.294Z,991.5
2023-07-23T18:49:48.478Z,991.5
2023-07-23T18:50:49.630Z,991.5
2023-07-23T18:51:50.818Z,991.5
2023-07-23T18:52:54.695Z,991.6
2023-07-23T18:53:58.790Z,991.5
2023-07-23T18:55:20.128Z,991.5
2023-07-23T18:56:30.071Z,991.5
2023-07-23T18:57:31.947Z,991.6
2023-07-23T18:58:33.347Z,991.5
2023-07-23T19:00:45.769Z,991.6
2023-07-23T19:02:04.303Z,991.6
2023-07-23T19:03:12.990Z,991.6
2023-07-23T19:04:32.674Z,991.6
2023-07-23T19:05:33.905Z,991.6
2023-07-23T19:06:37.833Z,991.6
2023-07-23T19:07:46.262Z,991.6
2023-07-23T19:08:52.090Z,991.6
2023-07-23T19:09:53.672Z,991.6
2023-07-23T19:10:56.824Z,991.6
2023-07-23T19:12:00.752Z,991.6
2023-07-23T19:13:06.777Z,991.6
2023-07-23T19:14:14.203Z,991.6
2023-07-23T19:15:22.723Z,991.6
2023-07-23T19:16:23.986Z,991.6
2023-07-23T19:17:45.032Z,991.6
2023-07-23T19:18:49.038Z,991.6
2023-07-23T19:19:56.958Z,991.6
2023-07-23T19:22:16.576Z,991.7
2023-07-23T19:24:47.399Z,991.6
2023-07-23T19:26:01.161Z,991.6
2023-07-23T19:27:30.863Z,991.6
2023-07-23T19:29:49.246Z,991.6
2023-07-23T19:30:52.569Z,991.6
2023-07-23T19:31:53.734Z,991.6
2023-07-23T19:33:00.689Z,991.6
2023-07-23T19:34:11.031Z,991.6
2023-07-23T19:35:16.695Z,991.6
2023-07-23T19:36:31.709Z,991.6
2023-07-23T19:37:35.542Z,991.6
2023-07-23T19:38:41.903Z,991.6
2023-07-23T19:40:09.098Z,991.6
2023-07-23T19:41:15.213Z,991.6
2023-07-23T19:43:42.785Z,991.6
2023-07-23T19:45:01.493Z,991.6
2023-07-23T19:47:43.893Z,991.6
2023-07-23T19:48:53.625Z,991.6
2023-07-23T19:49:59.933Z,991.5
2023-07-23T19:51:24.973Z,991.5
2023-07-23T19:52:31.154Z,991.5
2023-07-23T19:53:44.108Z,991.5
2023-07-23T19:54:58.485Z,991.5
2023-07-23T19:56:04.642Z,991.5
2023-07-23T19:57:16.220Z,991.5
2023-07-23T19:58:20.446Z,991.4
2023-07-23T19:59:27.139Z,991.5
2023-07-23T20:00:35.903Z,991.5
2023-07-23T20:04:33.138Z,991.4
2023-07-23T20:05:36.520Z,991.4
2023-07-23T20:08:20.337Z,991.4
2023-07-23T20:09:31.918Z,991.3
2023-07-23T20:10:55.826Z,991.3
2023-07-23T20:12:10.187Z,991.3
2023-07-23T20:13:59.983Z,991.3
2023-07-23T20:15:44.776Z,991.3
2023-07-23T20:16:56.589Z,991.3
2023-07-23T20:18:05.743Z,991.3
2023-07-23T20:19:18.828Z,991.3
2023-07-23T20:20:31.324Z,991.3
2023-07-23T20:22:03.080Z,991.4
2023-07-23T20:23:13.347Z,991.3
2023-07-23T20:24:22.382Z,991.4
2023-07-23T20:27:38.511Z,991.3
2023-07-23T20:28:41.974Z,991.3
2023-07-23T20:30:01.325Z,991.3
2023-07-23T20:31:07.597Z,991.3
2023-07-23T20:32:31.691Z,991.3
2023-07-23T20:33:57.293Z,991.3
2023-07-23T20:40:02.445Z,991.2
2023-07-23T20:41:11.260Z,991.2
2023-07-23T20:42:15.139Z,991.2
2023-07-23T20:43:16.331Z,991.2
2023-07-23T20:46:24.491Z,991.2
2023-07-23T20:47:43.440Z,991.2
2023-07-23T20:48:55.219Z,991.2
2023-07-23T20:49:56.537Z,991.1
2023-07-23T20:51:05.105Z,991.1
2023-07-23T20:52:11.093Z,991.1
2023-07-23T20:53:12.289Z,991.1
2023-07-23T20:54:13.430Z,991.1
2023-07-23T20:55:17.784Z,991.1
2023-07-23T20:56:23.947Z,991.1
2023-07-23T20:57:45.284Z,991.1
2023-07-23T20:58:46.532Z,991.1
2023-07-23T20:59:54.672Z,991.1
2023-07-23T21:01:19.673Z,991.1
2023-07-23T21:02:26.291Z,991.1
2023-07-23T21:03:33.435Z,991
2023-07-23T21:04:36.933Z,991
2023-07-23T21:05:56.086Z,991
2023-07-23T21:20:18.727Z,990.9
2023-07-23T21:24:15.535Z,990.9
2023-07-23T21:25:20.197Z,990.9
2023-07-23T21:26:26.308Z,990.9
2023-07-23T21:27:27.793Z,990.9
2023-07-23T21:28:28.986Z,990.9
2023-07-23T21:29:37.587Z,990.9
2023-07-23T21:30:43.749Z,990.9
2023-07-23T21:32:02.790Z,990.8
2023-07-23T21:33:04.033Z,990.8
2023-07-23T21:35:13.741Z,990.9
2023-07-23T21:36:15.964Z,990.8
2023-07-23T21:37:55.556Z,990.9
2023-07-23T21:42:40.547Z,990.9
2023-07-23T21:43:47.389Z,990.9
2023-07-23T21:45:11.126Z,990.9
2023-07-23T22:01:33.185Z,990.8
2023-07-23T22:03:55.755Z,990.8
2023-07-23T22:08:05.896Z,990.8
2023-07-23T22:12:31.199Z,990.8
2023-07-23T22:14:20.490Z,990.8
2023-07-23T22:38:11.264Z,990.8
2023-07-23T22:39:22.105Z,990.7
2023-07-23T23:09:31.965Z,990.6
